Аэропорт: Внуково. Москва

ICAO: UUWW

METAR:
2020-06-01 02:30:00
UUWW 010230Z 04007MPS 6000 -SHRA BKN007 BKN020CB 08/06 Q1010 R06/290050 NOSIG
METAR:
2020-06-01 01:56:00
TAF UUWW 010156Z 0103/0203 02006MPS 9000 BKN007 OVC016 TX10/0113Z TN07/0103Z TEMPO 0103/0106 -SHRA BKN004 SCT016CB BECMG 0106/0107 FEW007 BKN020 TEMPO 0107/0121 04008G16MPS -SHRA SCT020CB